sensor_id;sensor_type;location;lat;lon;timestamp;P1;durP1;ratioP1;P2;durP2;ratioP2
45366;SDS011;31100;55.848;37.636;2022-10-13T00:01:08;6.55;;;2.70;;
45366;SDS011;31100;55.848;37.636;2022-10-13T00:03:35;5.13;;;3.05;;
45366;SDS011;31100;55.848;37.636;2022-10-13T00:06:03;6.03;;;2.90;;
45366;SDS011;31100;55.848;37.636;2022-10-13T00:08:30;7.20;;;3.40;;
45366;SDS011;31100;55.848;37.636;2022-10-13T00:10:55;6.80;;;2.67;;
45366;SDS011;31100;55.848;37.636;2022-10-13T00:13:21;6.13;;;2.60;;
45366;SDS011;31100;55.848;37.636;2022-10-13T00:15:47;7.88;;;2.80;;
45366;SDS011;31100;55.848;37.636;2022-10-13T00:18:13;7.97;;;2.63;;
45366;SDS011;31100;55.848;37.636;2022-10-13T00:20:40;8.88;;;2.80;;
45366;SDS011;31100;55.848;37.636;2022-10-13T00:23:11;4.93;;;2.67;;
45366;SDS011;31100;55.848;37.636;2022-10-13T00:25:45;7.28;;;3.28;;
45366;SDS011;31100;55.848;37.636;2022-10-13T00:28:12;6.22;;;2.92;;
45366;SDS011;31100;55.848;37.636;2022-10-13T00:30:38;7.00;;;2.72;;
45366;SDS011;31100;55.848;37.636;2022-10-13T00:33:05;5.85;;;2.92;;
45366;SDS011;31100;55.848;37.636;2022-10-13T00:35:31;5.63;;;2.90;;
45366;SDS011;31100;55.848;37.636;2022-10-13T00:37:57;5.60;;;3.20;;
45366;SDS011;31100;55.848;37.636;2022-10-13T00:40:23;6.43;;;2.80;;
45366;SDS011;31100;55.848;37.636;2022-10-13T00:42:49;5.35;;;2.78;;
45366;SDS011;31100;55.848;37.636;2022-10-13T00:45:24;6.05;;;2.85;;
45366;SDS011;31100;55.848;37.636;2022-10-13T00:47:58;6.78;;;3.03;;
45366;SDS011;31100;55.848;37.636;2022-10-13T00:50:29;4.88;;;2.78;;
45366;SDS011;31100;55.848;37.636;2022-10-13T00:52:58;5.20;;;2.75;;
45366;SDS011;31100;55.848;37.636;2022-10-13T00:55:26;6.05;;;2.67;;
45366;SDS011;31100;55.848;37.636;2022-10-13T00:57:55;6.68;;;2.72;;
45366;SDS011;31100;55.848;37.636;2022-10-13T01:00:24;6.38;;;3.50;;
45366;SDS011;31100;55.848;37.636;2022-10-13T01:02:50;5.97;;;2.92;;
45366;SDS011;31100;55.848;37.636;2022-10-13T01:05:16;6.75;;;2.95;;
45366;SDS011;31100;55.848;37.636;2022-10-13T01:07:43;6.25;;;3.03;;
45366;SDS011;31100;55.848;37.636;2022-10-13T01:10:13;5.88;;;2.65;;
45366;SDS011;31100;55.848;37.636;2022-10-13T01:12:58;5.53;;;3.17;;
45366;SDS011;31100;55.848;37.636;2022-10-13T01:15:37;7.88;;;2.88;;
45366;SDS011;31100;55.848;37.636;2022-10-13T01:18:07;5.90;;;2.70;;
45366;SDS011;31100;55.848;37.636;2022-10-13T01:23:29;6.07;;;3.00;;
45366;SDS011;31100;55.848;37.636;2022-10-13T01:26:32;5.32;;;2.58;;
45366;SDS011;31100;55.848;37.636;2022-10-13T01:32:07;6.68;;;3.05;;
45366;SDS011;31100;55.848;37.636;2022-10-13T01:46:05;8.18;;;3.85;;
45366;SDS011;31100;55.848;37.636;2022-10-13T01:48:37;7.10;;;4.10;;
45366;SDS011;31100;55.848;37.636;2022-10-13T01:51:04;6.88;;;3.60;;
45366;SDS011;31100;55.848;37.636;2022-10-13T01:53:31;6.63;;;3.72;;
45366;SDS011;31100;55.848;37.636;2022-10-13T01:55:58;6.68;;;4.22;;
45366;SDS011;31100;55.848;37.636;2022-10-13T01:58:26;7.90;;;4.05;;
45366;SDS011;31100;55.848;37.636;2022-10-13T02:04:55;6.47;;;3.65;;
45366;SDS011;31100;55.848;37.636;2022-10-13T02:06:57;7.97;;;4.03;;
45366;SDS011;31100;55.848;37.636;2022-10-13T02:09:33;7.93;;;4.40;;
45366;SDS011;31100;55.848;37.636;2022-10-13T02:12:13;6.40;;;4.03;;
45366;SDS011;31100;55.848;37.636;2022-10-13T02:14:42;8.20;;;4.15;;
45366;SDS011;31100;55.848;37.636;2022-10-13T02:17:09;7.03;;;3.80;;
45366;SDS011;31100;55.848;37.636;2022-10-13T02:19:36;8.05;;;4.20;;
45366;SDS011;31100;55.848;37.636;2022-10-13T02:22:02;7.68;;;4.15;;
45366;SDS011;31100;55.848;37.636;2022-10-13T02:24:28;9.25;;;4.43;;
45366;SDS011;31100;55.848;37.636;2022-10-13T02:26:54;7.72;;;3.83;;
45366;SDS011;31100;55.848;37.636;2022-10-13T02:29:20;10.20;;;4.85;;
45366;SDS011;31100;55.848;37.636;2022-10-13T02:31:46;10.35;;;4.85;;
45366;SDS011;31100;55.848;37.636;2022-10-13T02:34:12;6.47;;;4.10;;
45366;SDS011;31100;55.848;37.636;2022-10-13T02:36:38;6.68;;;4.38;;
45366;SDS011;31100;55.848;37.636;2022-10-13T02:39:05;8.10;;;4.50;;
45366;SDS011;31100;55.848;37.636;2022-10-13T02:41:31;9.52;;;4.80;;
45366;SDS011;31100;55.848;37.636;2022-10-13T02:43:57;10.90;;;4.45;;
45366;SDS011;31100;55.848;37.636;2022-10-13T02:46:22;9.18;;;4.38;;
45366;SDS011;31100;55.848;37.636;2022-10-13T02:48:48;8.18;;;4.22;;
45366;SDS011;31100;55.848;37.636;2022-10-13T02:51:42;11.23;;;4.38;;
45366;SDS011;31100;55.848;37.636;2022-10-13T02:54:16;8.70;;;4.82;;
45366;SDS011;31100;55.848;37.636;2022-10-13T02:56:41;8.75;;;4.30;;
45366;SDS011;31100;55.848;37.636;2022-10-13T02:59:07;9.05;;;4.60;;
45366;SDS011;31100;55.848;37.636;2022-10-13T03:01:32;10.65;;;5.50;;
45366;SDS011;31100;55.848;37.636;2022-10-13T03:03:59;9.02;;;5.40;;
45366;SDS011;31100;55.848;37.636;2022-10-13T03:06:25;10.65;;;6.15;;
45366;SDS011;31100;55.848;37.636;2022-10-13T03:08:50;8.77;;;6.32;;
45366;SDS011;31100;55.848;37.636;2022-10-13T03:11:16;12.15;;;6.72;;
45366;SDS011;31100;55.848;37.636;2022-10-13T03:13:42;12.65;;;7.28;;
45366;SDS011;31100;55.848;37.636;2022-10-13T03:16:07;10.95;;;7.47;;
45366;SDS011;31100;55.848;37.636;2022-10-13T03:18:33;11.57;;;7.90;;
45366;SDS011;31100;55.848;37.636;2022-10-13T03:20:59;11.40;;;8.43;;
45366;SDS011;31100;55.848;37.636;2022-10-13T03:23:27;13.20;;;8.07;;
45366;SDS011;31100;55.848;37.636;2022-10-13T03:25:53;13.20;;;8.48;;
45366;SDS011;31100;55.848;37.636;2022-10-13T03:28:19;12.57;;;8.35;;
45366;SDS011;31100;55.848;37.636;2022-10-13T03:30:45;11.75;;;7.93;;
45366;SDS011;31100;55.848;37.636;2022-10-13T03:33:11;12.38;;;8.45;;
45366;SDS011;31100;55.848;37.636;2022-10-13T03:35:37;10.18;;;8.30;;
45366;SDS011;31100;55.848;37.636;2022-10-13T03:38:02;12.52;;;8.15;;
45366;SDS011;31100;55.848;37.636;2022-10-13T03:40:28;10.93;;;8.07;;
45366;SDS011;31100;55.848;37.636;2022-10-13T03:42:54;13.82;;;8.45;;
45366;SDS011;31100;55.848;37.636;2022-10-13T03:45:19;12.30;;;8.55;;
45366;SDS011;31100;55.848;37.636;2022-10-13T03:47:45;14.68;;;8.82;;
45366;SDS011;31100;55.848;37.636;2022-10-13T03:50:11;11.88;;;7.78;;
45366;SDS011;31100;55.848;37.636;2022-10-13T03:52:36;12.27;;;7.43;;
45366;SDS011;31100;55.848;37.636;2022-10-13T03:55:02;12.25;;;8.18;;
45366;SDS011;31100;55.848;37.636;2022-10-13T03:57:29;10.38;;;7.07;;
45366;SDS011;31100;55.848;37.636;2022-10-13T03:59:55;14.75;;;7.90;;
45366;SDS011;31100;55.848;37.636;2022-10-13T04:02:21;11.52;;;7.25;;
45366;SDS011;31100;55.848;37.636;2022-10-13T04:04:47;12.45;;;7.50;;
45366;SDS011;31100;55.848;37.636;2022-10-13T04:07:13;11.38;;;7.57;;
45366;SDS011;31100;55.848;37.636;2022-10-13T04:09:38;10.38;;;7.50;;
45366;SDS011;31100;55.848;37.636;2022-10-13T04:12:04;11.15;;;6.95;;
45366;SDS011;31100;55.848;37.636;2022-10-13T04:14:30;12.35;;;7.43;;
45366;SDS011;31100;55.848;37.636;2022-10-13T04:16:55;11.23;;;7.00;;
45366;SDS011;31100;55.848;37.636;2022-10-13T04:19:21;11.07;;;7.63;;
45366;SDS011;31100;55.848;37.636;2022-10-13T04:21:47;15.48;;;7.32;;
45366;SDS011;31100;55.848;37.636;2022-10-13T04:24:13;11.65;;;7.25;;
45366;SDS011;31100;55.848;37.636;2022-10-13T04:26:39;12.13;;;7.97;;
45366;SDS011;31100;55.848;37.636;2022-10-13T04:29:06;14.98;;;8.32;;
45366;SDS011;31100;55.848;37.636;2022-10-13T04:31:33;10.38;;;7.57;;
45366;SDS011;31100;55.848;37.636;2022-10-13T04:33:59;11.70;;;8.38;;
45366;SDS011;31100;55.848;37.636;2022-10-13T04:36:25;12.20;;;7.82;;
45366;SDS011;31100;55.848;37.636;2022-10-13T04:38:51;12.02;;;7.57;;
45366;SDS011;31100;55.848;37.636;2022-10-13T04:41:17;10.25;;;7.35;;
45366;SDS011;31100;55.848;37.636;2022-10-13T04:43:46;13.40;;;7.15;;
45366;SDS011;31100;55.848;37.636;2022-10-13T04:46:13;15.55;;;8.45;;
45366;SDS011;31100;55.848;37.636;2022-10-13T04:48:40;14.48;;;8.02;;
45366;SDS011;31100;55.848;37.636;2022-10-13T04:51:10;12.82;;;7.75;;
45366;SDS011;31100;55.848;37.636;2022-10-13T04:53:37;13.45;;;8.55;;
45366;SDS011;31100;55.848;37.636;2022-10-13T04:56:05;13.75;;;8.40;;
45366;SDS011;31100;55.848;37.636;2022-10-13T04:58:35;12.07;;;8.18;;
45366;SDS011;31100;55.848;37.636;2022-10-13T05:01:02;11.23;;;8.10;;
45366;SDS011;31100;55.848;37.636;2022-10-13T05:03:28;15.52;;;8.38;;
45366;SDS011;31100;55.848;37.636;2022-10-13T05:05:54;13.63;;;8.35;;
45366;SDS011;31100;55.848;37.636;2022-10-13T05:08:20;18.85;;;11.88;;
45366;SDS011;31100;55.848;37.636;2022-10-13T05:10:53;14.65;;;8.10;;
45366;SDS011;31100;55.848;37.636;2022-10-13T05:13:23;13.27;;;8.52;;
45366;SDS011;31100;55.848;37.636;2022-10-13T05:15:49;13.00;;;7.55;;
45366;SDS011;31100;55.848;37.636;2022-10-13T05:18:14;12.05;;;8.43;;
45366;SDS011;31100;55.848;37.636;2022-10-13T05:20:40;11.88;;;7.82;;
45366;SDS011;31100;55.848;37.636;2022-10-13T05:23:06;12.40;;;7.57;;
45366;SDS011;31100;55.848;37.636;2022-10-13T05:25:33;9.90;;;7.03;;
45366;SDS011;31100;55.848;37.636;2022-10-13T05:27:59;12.75;;;7.10;;
45366;SDS011;31100;55.848;37.636;2022-10-13T05:30:25;11.75;;;6.88;;
45366;SDS011;31100;55.848;37.636;2022-10-13T05:32:50;12.38;;;6.95;;
45366;SDS011;31100;55.848;37.636;2022-10-13T05:35:16;9.55;;;6.22;;
45366;SDS011;31100;55.848;37.636;2022-10-13T05:37:41;12.00;;;6.75;;
45366;SDS011;31100;55.848;37.636;2022-10-13T05:40:07;12.05;;;7.40;;
45366;SDS011;31100;55.848;37.636;2022-10-13T05:42:34;13.65;;;7.00;;
45366;SDS011;31100;55.848;37.636;2022-10-13T05:44:59;11.65;;;6.75;;
45366;SDS011;31100;55.848;37.636;2022-10-13T05:47:25;11.43;;;6.18;;
45366;SDS011;31100;55.848;37.636;2022-10-13T05:49:55;12.68;;;6.30;;
45366;SDS011;31100;55.848;37.636;2022-10-13T05:52:21;11.85;;;6.50;;
45366;SDS011;31100;55.848;37.636;2022-10-13T05:54:49;12.23;;;6.75;;
45366;SDS011;31100;55.848;37.636;2022-10-13T05:57:27;10.32;;;6.03;;
45366;SDS011;31100;55.848;37.636;2022-10-13T05:59:57;11.65;;;6.72;;
45366;SDS011;31100;55.848;37.636;2022-10-13T06:02:30;10.32;;;6.82;;
45366;SDS011;31100;55.848;37.636;2022-10-13T06:04:59;11.30;;;7.32;;
45366;SDS011;31100;55.848;37.636;2022-10-13T06:07:25;11.38;;;6.88;;
45366;SDS011;31100;55.848;37.636;2022-10-13T06:09:51;9.82;;;6.13;;
45366;SDS011;31100;55.848;37.636;2022-10-13T06:12:16;8.50;;;5.40;;
45366;SDS011;31100;55.848;37.636;2022-10-13T06:14:42;10.90;;;5.97;;
45366;SDS011;31100;55.848;37.636;2022-10-13T06:17:07;13.23;;;5.95;;
45366;SDS011;31100;55.848;37.636;2022-10-13T06:19:33;10.88;;;6.18;;
45366;SDS011;31100;55.848;37.636;2022-10-13T06:21:59;15.23;;;7.22;;
45366;SDS011;31100;55.848;37.636;2022-10-13T06:24:24;12.88;;;6.75;;
45366;SDS011;31100;55.848;37.636;2022-10-13T06:26:50;10.52;;;6.30;;
45366;SDS011;31100;55.848;37.636;2022-10-13T06:29:16;9.60;;;6.60;;
45366;SDS011;31100;55.848;37.636;2022-10-13T06:31:41;12.52;;;7.05;;
45366;SDS011;31100;55.848;37.636;2022-10-13T06:34:07;9.98;;;6.45;;
45366;SDS011;31100;55.848;37.636;2022-10-13T06:36:32;9.50;;;5.95;;
45366;SDS011;31100;55.848;37.636;2022-10-13T06:38:58;12.90;;;6.90;;
45366;SDS011;31100;55.848;37.636;2022-10-13T06:41:24;10.55;;;6.35;;
45366;SDS011;31100;55.848;37.636;2022-10-13T06:43:49;11.68;;;6.70;;
45366;SDS011;31100;55.848;37.636;2022-10-13T06:46:15;10.98;;;6.43;;
45366;SDS011;31100;55.848;37.636;2022-10-13T06:48:41;9.73;;;6.68;;
45366;SDS011;31100;55.848;37.636;2022-10-13T06:51:07;12.73;;;6.65;;
45366;SDS011;31100;55.848;37.636;2022-10-13T06:53:35;12.68;;;6.82;;
45366;SDS011;31100;55.848;37.636;2022-10-13T06:56:02;13.40;;;7.60;;
45366;SDS011;31100;55.848;37.636;2022-10-13T06:58:29;11.57;;;7.00;;
45366;SDS011;31100;55.848;37.636;2022-10-13T07:00:55;11.43;;;7.00;;
45366;SDS011;31100;55.848;37.636;2022-10-13T07:03:20;10.88;;;6.97;;
45366;SDS011;31100;55.848;37.636;2022-10-13T07:05:47;8.25;;;6.45;;
45366;SDS011;31100;55.848;37.636;2022-10-13T07:08:12;12.52;;;7.10;;
45366;SDS011;31100;55.848;37.636;2022-10-13T07:10:38;11.32;;;7.30;;
45366;SDS011;31100;55.848;37.636;2022-10-13T07:13:04;12.43;;;7.93;;
45366;SDS011;31100;55.848;37.636;2022-10-13T07:15:29;19.08;;;10.63;;
45366;SDS011;31100;55.848;37.636;2022-10-13T07:17:55;16.92;;;9.55;;
45366;SDS011;31100;55.848;37.636;2022-10-13T07:20:21;11.98;;;8.07;;
45366;SDS011;31100;55.848;37.636;2022-10-13T07:22:47;12.38;;;8.45;;
45366;SDS011;31100;55.848;37.636;2022-10-13T07:25:13;16.35;;;8.40;;
45366;SDS011;31100;55.848;37.636;2022-10-13T07:27:42;12.88;;;7.82;;
45366;SDS011;31100;55.848;37.636;2022-10-13T07:30:10;12.85;;;8.48;;
45366;SDS011;31100;55.848;37.636;2022-10-13T07:32:36;14.77;;;8.02;;
45366;SDS011;31100;55.848;37.636;2022-10-13T07:35:05;15.05;;;8.25;;
45366;SDS011;31100;55.848;37.636;2022-10-13T07:37:32;15.65;;;8.75;;
45366;SDS011;31100;55.848;37.636;2022-10-13T07:39:57;13.20;;;8.00;;
45366;SDS011;31100;55.848;37.636;2022-10-13T07:42:24;15.70;;;8.73;;
45366;SDS011;31100;55.848;37.636;2022-10-13T07:44:53;13.85;;;8.38;;
45366;SDS011;31100;55.848;37.636;2022-10-13T07:47:19;16.17;;;9.38;;
45366;SDS011;31100;55.848;37.636;2022-10-13T07:49:44;13.90;;;8.57;;
45366;SDS011;31100;55.848;37.636;2022-10-13T07:52:10;13.70;;;8.40;;
45366;SDS011;31100;55.848;37.636;2022-10-13T07:54:35;13.45;;;8.45;;
45366;SDS011;31100;55.848;37.636;2022-10-13T07:57:01;11.73;;;8.63;;
45366;SDS011;31100;55.848;37.636;2022-10-13T07:59:27;13.98;;;8.98;;
45366;SDS011;31100;55.848;37.636;2022-10-13T08:01:53;16.38;;;8.70;;
45366;SDS011;31100;55.848;37.636;2022-10-13T08:04:18;13.15;;;8.52;;
45366;SDS011;31100;55.848;37.636;2022-10-13T08:06:44;11.30;;;8.80;;
45366;SDS011;31100;55.848;37.636;2022-10-13T08:09:10;13.63;;;8.40;;
45366;SDS011;31100;55.848;37.636;2022-10-13T08:11:35;10.65;;;7.85;;
45366;SDS011;31100;55.848;37.636;2022-10-13T08:14:01;10.48;;;7.43;;
45366;SDS011;31100;55.848;37.636;2022-10-13T08:16:28;11.50;;;7.45;;
45366;SDS011;31100;55.848;37.636;2022-10-13T08:18:55;10.65;;;7.28;;
45366;SDS011;31100;55.848;37.636;2022-10-13T08:21:21;15.77;;;8.90;;
45366;SDS011;31100;55.848;37.636;2022-10-13T08:23:47;10.43;;;7.07;;
45366;SDS011;31100;55.848;37.636;2022-10-13T08:26:25;13.43;;;7.70;;
45366;SDS011;31100;55.848;37.636;2022-10-13T08:28:51;10.00;;;6.53;;
45366;SDS011;31100;55.848;37.636;2022-10-13T08:31:18;10.13;;;6.50;;
45366;SDS011;31100;55.848;37.636;2022-10-13T08:33:50;13.43;;;6.78;;
45366;SDS011;31100;55.848;37.636;2022-10-13T08:36:16;14.43;;;7.38;;
45366;SDS011;31100;55.848;37.636;2022-10-13T08:38:42;12.23;;;6.90;;
45366;SDS011;31100;55.848;37.636;2022-10-13T08:43:56;9.43;;;6.60;;
45366;SDS011;31100;55.848;37.636;2022-10-13T08:46:44;10.45;;;6.05;;
45366;SDS011;31100;55.848;37.636;2022-10-13T08:49:15;10.05;;;6.07;;
45366;SDS011;31100;55.848;37.636;2022-10-13T08:51:41;7.88;;;5.38;;
45366;SDS011;31100;55.848;37.636;2022-10-13T08:54:13;8.95;;;5.82;;
45366;SDS011;31100;55.848;37.636;2022-10-13T08:56:40;7.78;;;5.20;;
45366;SDS011;31100;55.848;37.636;2022-10-13T09:01:40;8.35;;;5.28;;
45366;SDS011;31100;55.848;37.636;2022-10-13T09:06:44;7.35;;;5.65;;
45366;SDS011;31100;55.848;37.636;2022-10-13T09:09:14;8.98;;;5.68;;
45366;SDS011;31100;55.848;37.636;2022-10-13T09:11:43;7.93;;;6.32;;
45366;SDS011;31100;55.848;37.636;2022-10-13T09:16:52;9.63;;;5.75;;
45366;SDS011;31100;55.848;37.636;2022-10-13T09:27:53;9.05;;;5.80;;
45366;SDS011;31100;55.848;37.636;2022-10-13T09:38:17;9.77;;;5.43;;
45366;SDS011;31100;55.848;37.636;2022-10-13T09:40:57;7.70;;;5.07;;
45366;SDS011;31100;55.848;37.636;2022-10-13T09:45:53;8.18;;;5.20;;
45366;SDS011;31100;55.848;37.636;2022-10-13T09:48:22;7.47;;;5.35;;
45366;SDS011;31100;55.848;37.636;2022-10-13T09:50:52;9.00;;;5.43;;
45366;SDS011;31100;55.848;37.636;2022-10-13T09:56:06;8.25;;;4.85;;
45366;SDS011;31100;55.848;37.636;2022-10-13T10:01:33;7.50;;;4.85;;
45366;SDS011;31100;55.848;37.636;2022-10-13T10:04:05;6.35;;;4.57;;
45366;SDS011;31100;55.848;37.636;2022-10-13T10:06:31;8.38;;;4.80;;
45366;SDS011;31100;55.848;37.636;2022-10-13T10:11:52;7.03;;;4.45;;
45366;SDS011;31100;55.848;37.636;2022-10-13T10:14:26;6.68;;;4.47;;
45366;SDS011;31100;55.848;37.636;2022-10-13T10:17:02;9.18;;;4.78;;
45366;SDS011;31100;55.848;37.636;2022-10-13T10:25:02;9.68;;;5.20;;
45366;SDS011;31100;55.848;37.636;2022-10-13T10:28:38;8.63;;;4.55;;
45366;SDS011;31100;55.848;37.636;2022-10-13T10:30:48;8.20;;;4.53;;
45366;SDS011;31100;55.848;37.636;2022-10-13T10:33:34;6.68;;;4.55;;
45366;SDS011;31100;55.848;37.636;2022-10-13T10:36:13;9.07;;;4.22;;
45366;SDS011;31100;55.848;37.636;2022-10-13T10:38:50;6.82;;;4.38;;
45366;SDS011;31100;55.848;37.636;2022-10-13T10:44:00;8.75;;;4.53;;
45366;SDS011;31100;55.848;37.636;2022-10-13T10:46:27;10.32;;;4.25;;
45366;SDS011;31100;55.848;37.636;2022-10-13T10:48:57;7.60;;;4.93;;
45366;SDS011;31100;55.848;37.636;2022-10-13T10:51:47;5.63;;;4.20;;
45366;SDS011;31100;55.848;37.636;2022-10-13T10:56:50;6.40;;;4.30;;
45366;SDS011;31100;55.848;37.636;2022-10-13T11:04:45;6.43;;;3.75;;
45366;SDS011;31100;55.848;37.636;2022-10-13T11:07:16;4.68;;;2.95;;
45366;SDS011;31100;55.848;37.636;2022-10-13T11:12:24;5.30;;;3.13;;
45366;SDS011;31100;55.848;37.636;2022-10-13T11:17:28;6.85;;;4.10;;
45366;SDS011;31100;55.848;37.636;2022-10-13T11:20:02;7.53;;;3.85;;
45366;SDS011;31100;55.848;37.636;2022-10-13T11:25:37;5.78;;;3.17;;
45366;SDS011;31100;55.848;37.636;2022-10-13T11:30:48;6.70;;;3.17;;
45366;SDS011;31100;55.848;37.636;2022-10-13T11:52:16;6.53;;;3.42;;
45366;SDS011;31100;55.848;37.636;2022-10-13T11:54:48;5.13;;;3.47;;
45366;SDS011;31100;55.848;37.636;2022-10-13T11:57:17;7.00;;;4.47;;
45366;SDS011;31100;55.848;37.636;2022-10-13T11:59:45;6.30;;;3.30;;
45366;SDS011;31100;55.848;37.636;2022-10-13T12:02:13;8.80;;;3.80;;
45366;SDS011;31100;55.848;37.636;2022-10-13T12:04:44;6.55;;;3.25;;
45366;SDS011;31100;55.848;37.636;2022-10-13T12:07:11;6.43;;;3.38;;
45366;SDS011;31100;55.848;37.636;2022-10-13T12:09:47;5.35;;;2.88;;
45366;SDS011;31100;55.848;37.636;2022-10-13T12:12:15;6.50;;;3.30;;
45366;SDS011;31100;55.848;37.636;2022-10-13T12:14:43;6.57;;;2.92;;
45366;SDS011;31100;55.848;37.636;2022-10-13T12:19:43;6.68;;;2.97;;
45366;SDS011;31100;55.848;37.636;2022-10-13T12:22:12;6.20;;;3.25;;
45366;SDS011;31100;55.848;37.636;2022-10-13T12:24:38;6.40;;;3.42;;
45366;SDS011;31100;55.848;37.636;2022-10-13T12:27:10;5.35;;;3.13;;
45366;SDS011;31100;55.848;37.636;2022-10-13T12:29:43;7.35;;;3.42;;
45366;SDS011;31100;55.848;37.636;2022-10-13T12:32:28;6.53;;;3.15;;
45366;SDS011;31100;55.848;37.636;2022-10-13T12:34:55;5.35;;;3.03;;
45366;SDS011;31100;55.848;37.636;2022-10-13T12:37:33;5.72;;;3.03;;
45366;SDS011;31100;55.848;37.636;2022-10-13T12:40:00;8.25;;;3.28;;
45366;SDS011;31100;55.848;37.636;2022-10-13T12:42:32;8.63;;;3.90;;
45366;SDS011;31100;55.848;37.636;2022-10-13T12:44:59;7.32;;;3.00;;
45366;SDS011;31100;55.848;37.636;2022-10-13T12:47:35;6.78;;;3.38;;
45366;SDS011;31100;55.848;37.636;2022-10-13T13:01:02;6.03;;;3.42;;
45366;SDS011;31100;55.848;37.636;2022-10-13T13:03:32;5.00;;;2.80;;
45366;SDS011;31100;55.848;37.636;2022-10-13T13:06:18;5.80;;;2.65;;
45366;SDS011;31100;55.848;37.636;2022-10-13T13:08:46;4.20;;;2.20;;
45366;SDS011;31100;55.848;37.636;2022-10-13T13:12:05;4.68;;;2.00;;
45366;SDS011;31100;55.848;37.636;2022-10-13T13:14:43;5.38;;;2.38;;
45366;SDS011;31100;55.848;37.636;2022-10-13T13:19:51;4.57;;;2.50;;
45366;SDS011;31100;55.848;37.636;2022-10-13T13:22:17;3.92;;;2.00;;
45366;SDS011;31100;55.848;37.636;2022-10-13T13:24:43;4.22;;;2.10;;
45366;SDS011;31100;55.848;37.636;2022-10-13T13:27:16;4.50;;;2.10;;
45366;SDS011;31100;55.848;37.636;2022-10-13T13:29:42;3.80;;;2.13;;
45366;SDS011;31100;55.848;37.636;2022-10-13T13:32:10;4.43;;;2.00;;
45366;SDS011;31100;55.848;37.636;2022-10-13T13:34:44;4.47;;;1.92;;
45366;SDS011;31100;55.848;37.636;2022-10-13T13:37:12;7.65;;;2.38;;
45366;SDS011;31100;55.848;37.636;2022-10-13T13:39:48;3.65;;;2.08;;
45366;SDS011;31100;55.848;37.636;2022-10-13T13:42:14;4.07;;;2.15;;
45366;SDS011;31100;55.848;37.636;2022-10-13T13:44:39;4.20;;;2.17;;
45366;SDS011;31100;55.848;37.636;2022-10-13T13:47:19;4.20;;;2.38;;
45366;SDS011;31100;55.848;37.636;2022-10-13T13:49:46;3.90;;;2.30;;
45366;SDS011;31100;55.848;37.636;2022-10-13T13:52:12;3.85;;;2.40;;
45366;SDS011;31100;55.848;37.636;2022-10-13T13:54:38;5.22;;;2.75;;
45366;SDS011;31100;55.848;37.636;2022-10-13T13:57:03;5.50;;;3.00;;
45366;SDS011;31100;55.848;37.636;2022-10-13T13:59:29;6.65;;;2.80;;
45366;SDS011;31100;55.848;37.636;2022-10-13T14:01:55;6.80;;;3.28;;
45366;SDS011;31100;55.848;37.636;2022-10-13T14:04:20;6.20;;;3.05;;
45366;SDS011;31100;55.848;37.636;2022-10-13T14:06:46;5.07;;;3.05;;
45366;SDS011;31100;55.848;37.636;2022-10-13T14:09:12;5.30;;;3.20;;
45366;SDS011;31100;55.848;37.636;2022-10-13T14:11:47;5.07;;;3.10;;
45366;SDS011;31100;55.848;37.636;2022-10-13T14:14:13;5.68;;;3.20;;
45366;SDS011;31100;55.848;37.636;2022-10-13T14:16:38;7.95;;;3.60;;
45366;SDS011;31100;55.848;37.636;2022-10-13T14:19:05;5.55;;;3.20;;
45366;SDS011;31100;55.848;37.636;2022-10-13T14:21:32;5.20;;;3.30;;
45366;SDS011;31100;55.848;37.636;2022-10-13T14:23:58;6.97;;;4.05;;
45366;SDS011;31100;55.848;37.636;2022-10-13T14:26:23;7.50;;;3.83;;
45366;SDS011;31100;55.848;37.636;2022-10-13T14:28:51;6.25;;;3.35;;
45366;SDS011;31100;55.848;37.636;2022-10-13T14:31:27;5.68;;;3.80;;
45366;SDS011;31100;55.848;37.636;2022-10-13T14:33:53;7.97;;;3.80;;
45366;SDS011;31100;55.848;37.636;2022-10-13T14:36:19;6.10;;;4.10;;
45366;SDS011;31100;55.848;37.636;2022-10-13T14:38:44;6.25;;;3.92;;
45366;SDS011;31100;55.848;37.636;2022-10-13T14:41:10;10.20;;;4.32;;
45366;SDS011;31100;55.848;37.636;2022-10-13T14:43:35;7.90;;;4.28;;
45366;SDS011;31100;55.848;37.636;2022-10-13T14:46:02;6.20;;;4.25;;
45366;SDS011;31100;55.848;37.636;2022-10-13T14:48:29;7.72;;;4.80;;
45366;SDS011;31100;55.848;37.636;2022-10-13T14:51:02;6.18;;;4.78;;
45366;SDS011;31100;55.848;37.636;2022-10-13T14:53:34;8.88;;;4.72;;
45366;SDS011;31100;55.848;37.636;2022-10-13T14:56:00;17.08;;;5.75;;
45366;SDS011;31100;55.848;37.636;2022-10-13T14:58:26;7.50;;;4.50;;
45366;SDS011;31100;55.848;37.636;2022-10-13T15:00:52;7.43;;;4.85;;
45366;SDS011;31100;55.848;37.636;2022-10-13T15:03:22;6.70;;;4.60;;
45366;SDS011;31100;55.848;37.636;2022-10-13T15:05:48;7.72;;;4.88;;
45366;SDS011;31100;55.848;37.636;2022-10-13T15:08:13;8.05;;;4.55;;
45366;SDS011;31100;55.848;37.636;2022-10-13T15:10:39;7.07;;;5.05;;
45366;SDS011;31100;55.848;37.636;2022-10-13T15:13:05;7.05;;;4.78;;
45366;SDS011;31100;55.848;37.636;2022-10-13T15:15:30;7.65;;;4.63;;
45366;SDS011;31100;55.848;37.636;2022-10-13T15:17:56;7.10;;;4.75;;
45366;SDS011;31100;55.848;37.636;2022-10-13T15:20:21;8.02;;;4.90;;
45366;SDS011;31100;55.848;37.636;2022-10-13T15:22:49;8.35;;;4.50;;
45366;SDS011;31100;55.848;37.636;2022-10-13T15:25:15;8.27;;;5.00;;
45366;SDS011;31100;55.848;37.636;2022-10-13T15:27:40;7.03;;;5.00;;
45366;SDS011;31100;55.848;37.636;2022-10-13T15:30:06;7.78;;;4.90;;
45366;SDS011;31100;55.848;37.636;2022-10-13T15:32:35;8.43;;;4.63;;
45366;SDS011;31100;55.848;37.636;2022-10-13T15:35:01;6.97;;;5.00;;
45366;SDS011;31100;55.848;37.636;2022-10-13T15:37:28;8.57;;;5.85;;
45366;SDS011;31100;55.848;37.636;2022-10-13T15:39:58;8.93;;;4.80;;
45366;SDS011;31100;55.848;37.636;2022-10-13T15:42:24;8.65;;;5.95;;
45366;SDS011;31100;55.848;37.636;2022-10-13T15:44:49;9.05;;;5.22;;
45366;SDS011;31100;55.848;37.636;2022-10-13T15:47:15;7.80;;;4.95;;
45366;SDS011;31100;55.848;37.636;2022-10-13T15:49:40;10.25;;;5.20;;
45366;SDS011;31100;55.848;37.636;2022-10-13T15:52:06;8.55;;;6.10;;
45366;SDS011;31100;55.848;37.636;2022-10-13T15:54:31;10.30;;;5.10;;
45366;SDS011;31100;55.848;37.636;2022-10-13T15:56:57;8.82;;;5.13;;
45366;SDS011;31100;55.848;37.636;2022-10-13T15:59:23;10.77;;;5.40;;
45366;SDS011;31100;55.848;37.636;2022-10-13T16:01:49;8.15;;;5.57;;
45366;SDS011;31100;55.848;37.636;2022-10-13T16:04:15;8.85;;;6.30;;
45366;SDS011;31100;55.848;37.636;2022-10-13T16:06:41;6.93;;;5.00;;
45366;SDS011;31100;55.848;37.636;2022-10-13T16:09:06;9.00;;;5.28;;
45366;SDS011;31100;55.848;37.636;2022-10-13T16:11:32;7.70;;;5.45;;
45366;SDS011;31100;55.848;37.636;2022-10-13T16:13:58;9.30;;;5.50;;
45366;SDS011;31100;55.848;37.636;2022-10-13T16:16:23;8.80;;;5.75;;
45366;SDS011;31100;55.848;37.636;2022-10-13T16:18:49;9.13;;;5.85;;
45366;SDS011;31100;55.848;37.636;2022-10-13T16:21:20;9.27;;;5.40;;
45366;SDS011;31100;55.848;37.636;2022-10-13T16:23:47;8.25;;;5.95;;
45366;SDS011;31100;55.848;37.636;2022-10-13T16:26:13;7.80;;;5.53;;
45366;SDS011;31100;55.848;37.636;2022-10-13T16:28:39;9.52;;;5.40;;
45366;SDS011;31100;55.848;37.636;2022-10-13T16:31:09;10.27;;;5.85;;
45366;SDS011;31100;55.848;37.636;2022-10-13T16:33:38;8.85;;;5.82;;
45366;SDS011;31100;55.848;37.636;2022-10-13T16:36:06;9.95;;;6.97;;